sensor_id;sensor_type;location;lat;lon;timestamp;temperature;humidity
20349;DHT22;10332;50.208;18.988;2023-08-20T00:01:28;24.00;98.50
20349;DHT22;10332;50.208;18.988;2023-08-20T00:03:56;24.00;97.90
20349;DHT22;10332;50.208;18.988;2023-08-20T00:06:25;23.90;99.10
20349;DHT22;10332;50.208;18.988;2023-08-20T00:08:52;23.90;99.20
20349;DHT22;10332;50.208;18.988;2023-08-20T00:11:20;23.80;99.90
20349;DHT22;10332;50.208;18.988;2023-08-20T00:13:47;23.80;99.90
20349;DHT22;10332;50.208;18.988;2023-08-20T00:16:15;23.70;99.90
20349;DHT22;10332;50.208;18.988;2023-08-20T00:18:43;23.60;99.90
20349;DHT22;10332;50.208;18.988;2023-08-20T00:21:11;23.60;99.90
20349;DHT22;10332;50.208;18.988;2023-08-20T00:23:39;23.50;99.90
20349;DHT22;10332;50.208;18.988;2023-08-20T00:26:06;23.50;99.90
20349;DHT22;10332;50.208;18.988;2023-08-20T00:28:34;23.40;99.90
20349;DHT22;10332;50.208;18.988;2023-08-20T00:31:03;23.40;99.90
20349;DHT22;10332;50.208;18.988;2023-08-20T00:33:32;23.30;99.90
20349;DHT22;10332;50.208;18.988;2023-08-20T00:35:59;23.30;99.90
20349;DHT22;10332;50.208;18.988;2023-08-20T00:38:27;23.20;99.90
20349;DHT22;10332;50.208;18.988;2023-08-20T00:40:54;23.20;99.90
20349;DHT22;10332;50.208;18.988;2023-08-20T00:43:21;23.20;99.90
20349;DHT22;10332;50.208;18.988;2023-08-20T00:45:49;23.20;99.90
20349;DHT22;10332;50.208;18.988;2023-08-20T00:48:17;23.20;99.90
20349;DHT22;10332;50.208;18.988;2023-08-20T00:50:45;23.20;99.90
20349;DHT22;10332;50.208;18.988;2023-08-20T00:53:13;23.10;99.90
20349;DHT22;10332;50.208;18.988;2023-08-20T00:55:42;23.00;99.90
20349;DHT22;10332;50.208;18.988;2023-08-20T00:58:13;23.00;99.90
20349;DHT22;10332;50.208;18.988;2023-08-20T01:00:41;23.00;99.90
20349;DHT22;10332;50.208;18.988;2023-08-20T01:03:09;23.00;99.90
20349;DHT22;10332;50.208;18.988;2023-08-20T01:05:43;23.00;99.90
20349;DHT22;10332;50.208;18.988;2023-08-20T01:08:26;23.00;99.90
20349;DHT22;10332;50.208;18.988;2023-08-20T01:11:10;23.00;99.90
20349;DHT22;10332;50.208;18.988;2023-08-20T01:13:44;22.90;99.90
20349;DHT22;10332;50.208;18.988;2023-08-20T01:16:13;22.90;99.90
20349;DHT22;10332;50.208;18.988;2023-08-20T01:18:40;22.90;99.90
20349;DHT22;10332;50.208;18.988;2023-08-20T01:21:41;22.90;99.90
20349;DHT22;10332;50.208;18.988;2023-08-20T01:28:24;22.90;99.90
20349;DHT22;10332;50.208;18.988;2023-08-20T01:30:58;22.90;99.90
20349;DHT22;10332;50.208;18.988;2023-08-20T01:33:30;22.90;99.90
20349;DHT22;10332;50.208;18.988;2023-08-20T01:35:58;22.90;99.90
20349;DHT22;10332;50.208;18.988;2023-08-20T01:38:26;22.90;99.90
20349;DHT22;10332;50.208;18.988;2023-08-20T01:40:53;22.90;99.90
20349;DHT22;10332;50.208;18.988;2023-08-20T01:43:21;22.90;99.90
20349;DHT22;10332;50.208;18.988;2023-08-20T01:45:49;22.90;99.90
20349;DHT22;10332;50.208;18.988;2023-08-20T01:48:16;22.90;99.90
20349;DHT22;10332;50.208;18.988;2023-08-20T01:50:44;22.90;99.90
20349;DHT22;10332;50.208;18.988;2023-08-20T01:53:12;22.80;99.90
20349;DHT22;10332;50.208;18.988;2023-08-20T01:55:40;22.80;99.90
20349;DHT22;10332;50.208;18.988;2023-08-20T01:58:07;22.80;99.90
20349;DHT22;10332;50.208;18.988;2023-08-20T02:00:35;22.80;99.90
20349;DHT22;10332;50.208;18.988;2023-08-20T02:03:02;22.90;99.90
20349;DHT22;10332;50.208;18.988;2023-08-20T02:05:31;22.80;99.90
20349;DHT22;10332;50.208;18.988;2023-08-20T02:07:58;22.80;99.90
20349;DHT22;10332;50.208;18.988;2023-08-20T02:10:26;22.80;99.90
20349;DHT22;10332;50.208;18.988;2023-08-20T02:12:53;22.70;99.90
20349;DHT22;10332;50.208;18.988;2023-08-20T02:15:20;22.70;99.90
20349;DHT22;10332;50.208;18.988;2023-08-20T02:17:48;22.70;99.90
20349;DHT22;10332;50.208;18.988;2023-08-20T02:20:15;22.70;99.90
20349;DHT22;10332;50.208;18.988;2023-08-20T02:22:43;22.70;99.90
20349;DHT22;10332;50.208;18.988;2023-08-20T02:25:10;22.70;99.90
20349;DHT22;10332;50.208;18.988;2023-08-20T02:27:38;22.70;99.90
20349;DHT22;10332;50.208;18.988;2023-08-20T02:30:06;22.70;99.90
20349;DHT22;10332;50.208;18.988;2023-08-20T02:32:34;22.60;99.90
20349;DHT22;10332;50.208;18.988;2023-08-20T02:35:01;22.60;99.90
20349;DHT22;10332;50.208;18.988;2023-08-20T02:37:32;22.60;99.90
20349;DHT22;10332;50.208;18.988;2023-08-20T02:40:00;22.60;99.90
20349;DHT22;10332;50.208;18.988;2023-08-20T02:42:28;22.60;99.90
20349;DHT22;10332;50.208;18.988;2023-08-20T02:44:55;22.60;99.90
20349;DHT22;10332;50.208;18.988;2023-08-20T02:47:23;22.60;99.90
20349;DHT22;10332;50.208;18.988;2023-08-20T02:49:50;22.60;99.90
20349;DHT22;10332;50.208;18.988;2023-08-20T02:52:17;22.60;99.90
20349;DHT22;10332;50.208;18.988;2023-08-20T02:54:45;22.60;99.90
20349;DHT22;10332;50.208;18.988;2023-08-20T02:57:12;22.60;99.90
20349;DHT22;10332;50.208;18.988;2023-08-20T02:59:40;22.60;99.90
20349;DHT22;10332;50.208;18.988;2023-08-20T03:02:07;22.60;99.90
20349;DHT22;10332;50.208;18.988;2023-08-20T03:04:35;22.60;99.90
20349;DHT22;10332;50.208;18.988;2023-08-20T03:07:02;22.60;99.90
20349;DHT22;10332;50.208;18.988;2023-08-20T03:09:30;22.70;99.90
20349;DHT22;10332;50.208;18.988;2023-08-20T03:11:57;22.70;99.90
20349;DHT22;10332;50.208;18.988;2023-08-20T03:14:24;22.70;99.90
20349;DHT22;10332;50.208;18.988;2023-08-20T03:16:54;22.70;99.90
20349;DHT22;10332;50.208;18.988;2023-08-20T03:19:22;22.70;99.90
20349;DHT22;10332;50.208;18.988;2023-08-20T03:21:49;22.70;99.90
20349;DHT22;10332;50.208;18.988;2023-08-20T03:24:17;22.70;99.90
20349;DHT22;10332;50.208;18.988;2023-08-20T03:26:44;22.70;99.90
20349;DHT22;10332;50.208;18.988;2023-08-20T03:29:13;22.70;99.90
20349;DHT22;10332;50.208;18.988;2023-08-20T03:31:40;22.70;99.90
20349;DHT22;10332;50.208;18.988;2023-08-20T03:34:08;22.70;99.90
20349;DHT22;10332;50.208;18.988;2023-08-20T03:36:36;22.70;99.90
20349;DHT22;10332;50.208;18.988;2023-08-20T03:39:04;22.70;99.90
20349;DHT22;10332;50.208;18.988;2023-08-20T03:41:31;22.70;99.90
20349;DHT22;10332;50.208;18.988;2023-08-20T03:43:59;22.70;99.90
20349;DHT22;10332;50.208;18.988;2023-08-20T03:46:26;22.70;99.90
20349;DHT22;10332;50.208;18.988;2023-08-20T03:48:54;22.60;99.90
20349;DHT22;10332;50.208;18.988;2023-08-20T03:51:21;22.60;99.90
20349;DHT22;10332;50.208;18.988;2023-08-20T03:53:49;22.60;99.90
20349;DHT22;10332;50.208;18.988;2023-08-20T03:56:17;22.60;99.90
20349;DHT22;10332;50.208;18.988;2023-08-20T03:58:45;22.60;99.90
20349;DHT22;10332;50.208;18.988;2023-08-20T04:01:13;22.50;99.90
20349;DHT22;10332;50.208;18.988;2023-08-20T04:03:40;22.50;99.90
20349;DHT22;10332;50.208;18.988;2023-08-20T04:06:08;22.50;99.90
20349;DHT22;10332;50.208;18.988;2023-08-20T04:08:35;22.50;99.90
20349;DHT22;10332;50.208;18.988;2023-08-20T04:11:02;22.40;99.90
20349;DHT22;10332;50.208;18.988;2023-08-20T04:13:30;22.40;99.90
20349;DHT22;10332;50.208;18.988;2023-08-20T04:15:58;22.40;99.90
20349;DHT22;10332;50.208;18.988;2023-08-20T04:18:26;22.40;99.90
20349;DHT22;10332;50.208;18.988;2023-08-20T04:20:54;22.40;99.90
20349;DHT22;10332;50.208;18.988;2023-08-20T04:23:22;22.40;99.90
20349;DHT22;10332;50.208;18.988;2023-08-20T04:25:50;22.40;99.90
20349;DHT22;10332;50.208;18.988;2023-08-20T04:28:17;22.40;99.90
20349;DHT22;10332;50.208;18.988;2023-08-20T04:30:45;22.30;99.90
20349;DHT22;10332;50.208;18.988;2023-08-20T04:33:12;22.30;99.90
20349;DHT22;10332;50.208;18.988;2023-08-20T04:35:39;22.30;99.90
20349;DHT22;10332;50.208;18.988;2023-08-20T04:38:07;22.30;99.90
20349;DHT22;10332;50.208;18.988;2023-08-20T04:40:34;22.30;99.90
20349;DHT22;10332;50.208;18.988;2023-08-20T04:43:02;22.30;99.90
20349;DHT22;10332;50.208;18.988;2023-08-20T04:45:29;22.40;99.90
20349;DHT22;10332;50.208;18.988;2023-08-20T04:47:57;22.40;99.90
20349;DHT22;10332;50.208;18.988;2023-08-20T04:50:25;22.50;99.90
20349;DHT22;10332;50.208;18.988;2023-08-20T04:52:53;22.50;99.90
20349;DHT22;10332;50.208;18.988;2023-08-20T04:55:21;22.50;99.90
20349;DHT22;10332;50.208;18.988;2023-08-20T04:57:49;22.60;99.90
20349;DHT22;10332;50.208;18.988;2023-08-20T05:00:17;22.60;99.90
20349;DHT22;10332;50.208;18.988;2023-08-20T05:02:44;22.70;99.90
20349;DHT22;10332;50.208;18.988;2023-08-20T05:05:12;22.70;99.90
20349;DHT22;10332;50.208;18.988;2023-08-20T05:07:39;22.70;99.90
20349;DHT22;10332;50.208;18.988;2023-08-20T05:10:08;22.80;99.90
20349;DHT22;10332;50.208;18.988;2023-08-20T05:12:36;22.80;99.90
20349;DHT22;10332;50.208;18.988;2023-08-20T05:15:04;22.80;99.90
20349;DHT22;10332;50.208;18.988;2023-08-20T05:17:32;22.80;99.90
20349;DHT22;10332;50.208;18.988;2023-08-20T05:19:59;22.90;99.90
20349;DHT22;10332;50.208;18.988;2023-08-20T05:22:27;22.90;99.90
20349;DHT22;10332;50.208;18.988;2023-08-20T05:24:54;23.00;99.90
20349;DHT22;10332;50.208;18.988;2023-08-20T05:27:22;23.00;99.90
20349;DHT22;10332;50.208;18.988;2023-08-20T05:29:49;23.10;99.90
20349;DHT22;10332;50.208;18.988;2023-08-20T05:32:17;23.10;99.90
20349;DHT22;10332;50.208;18.988;2023-08-20T05:34:44;23.10;99.90
20349;DHT22;10332;50.208;18.988;2023-08-20T05:37:12;23.20;99.90
20349;DHT22;10332;50.208;18.988;2023-08-20T05:39:43;23.20;99.90
20349;DHT22;10332;50.208;18.988;2023-08-20T05:42:12;23.30;99.90
20349;DHT22;10332;50.208;18.988;2023-08-20T05:44:39;23.30;99.90
20349;DHT22;10332;50.208;18.988;2023-08-20T05:47:06;23.40;99.90
20349;DHT22;10332;50.208;18.988;2023-08-20T05:49:34;23.50;99.90
20349;DHT22;10332;50.208;18.988;2023-08-20T05:52:01;23.60;99.90
20349;DHT22;10332;50.208;18.988;2023-08-20T05:54:29;23.60;99.90
20349;DHT22;10332;50.208;18.988;2023-08-20T05:56:58;23.70;99.90
20349;DHT22;10332;50.208;18.988;2023-08-20T05:59:25;23.70;99.90
20349;DHT22;10332;50.208;18.988;2023-08-20T06:01:53;23.80;99.90
20349;DHT22;10332;50.208;18.988;2023-08-20T06:04:22;23.90;99.90
20349;DHT22;10332;50.208;18.988;2023-08-20T06:06:49;23.90;99.80
20349;DHT22;10332;50.208;18.988;2023-08-20T06:09:17;23.90;99.40
20349;DHT22;10332;50.208;18.988;2023-08-20T06:11:44;24.00;98.90
20349;DHT22;10332;50.208;18.988;2023-08-20T06:14:12;24.00;98.60
20349;DHT22;10332;50.208;18.988;2023-08-20T06:16:39;24.10;98.50
20349;DHT22;10332;50.208;18.988;2023-08-20T06:19:07;24.20;98.10
20349;DHT22;10332;50.208;18.988;2023-08-20T06:21:34;24.40;97.50
20349;DHT22;10332;50.208;18.988;2023-08-20T06:24:02;24.50;96.30
20349;DHT22;10332;50.208;18.988;2023-08-20T06:26:30;24.50;95.80
20349;DHT22;10332;50.208;18.988;2023-08-20T06:28:57;24.60;95.80
20349;DHT22;10332;50.208;18.988;2023-08-20T06:31:25;24.60;95.60
20349;DHT22;10332;50.208;18.988;2023-08-20T06:33:52;24.60;95.70
20349;DHT22;10332;50.208;18.988;2023-08-20T06:36:20;24.70;95.60
20349;DHT22;10332;50.208;18.988;2023-08-20T06:38:47;24.80;95.20
20349;DHT22;10332;50.208;18.988;2023-08-20T06:41:15;25.00;94.50
20349;DHT22;10332;50.208;18.988;2023-08-20T06:43:42;25.00;94.10
20349;DHT22;10332;50.208;18.988;2023-08-20T06:46:10;25.10;94.00
20349;DHT22;10332;50.208;18.988;2023-08-20T06:48:37;25.00;93.90
20349;DHT22;10332;50.208;18.988;2023-08-20T06:51:12;25.30;93.70
20349;DHT22;10332;50.208;18.988;2023-08-20T06:53:40;25.40;93.50
20349;DHT22;10332;50.208;18.988;2023-08-20T06:56:08;25.70;93.00
20349;DHT22;10332;50.208;18.988;2023-08-20T06:58:37;25.90;92.20
20349;DHT22;10332;50.208;18.988;2023-08-20T07:01:06;26.20;91.50
20349;DHT22;10332;50.208;18.988;2023-08-20T07:03:39;26.40;90.10
20349;DHT22;10332;50.208;18.988;2023-08-20T07:06:09;26.60;88.30
20349;DHT22;10332;50.208;18.988;2023-08-20T07:08:40;26.70;85.30
20349;DHT22;10332;50.208;18.988;2023-08-20T07:11:08;26.70;80.90
20349;DHT22;10332;50.208;18.988;2023-08-20T07:13:36;26.80;80.10
20349;DHT22;10332;50.208;18.988;2023-08-20T07:16:04;26.90;80.00
20349;DHT22;10332;50.208;18.988;2023-08-20T07:18:31;26.90;79.40
20349;DHT22;10332;50.208;18.988;2023-08-20T07:20:59;27.00;78.80
20349;DHT22;10332;50.208;18.988;2023-08-20T07:23:27;27.00;77.60
20349;DHT22;10332;50.208;18.988;2023-08-20T07:26:09;27.10;76.40
20349;DHT22;10332;50.208;18.988;2023-08-20T07:28:39;27.20;76.00
20349;DHT22;10332;50.208;18.988;2023-08-20T07:31:29;27.30;75.50
20349;DHT22;10332;50.208;18.988;2023-08-20T07:34:00;27.40;72.00
20349;DHT22;10332;50.208;18.988;2023-08-20T07:36:32;27.30;72.20
20349;DHT22;10332;50.208;18.988;2023-08-20T07:39:00;27.40;71.30
20349;DHT22;10332;50.208;18.988;2023-08-20T07:41:29;27.50;71.10
20349;DHT22;10332;50.208;18.988;2023-08-20T07:43:57;27.50;70.60
20349;DHT22;10332;50.208;18.988;2023-08-20T07:46:24;27.50;68.50
20349;DHT22;10332;50.208;18.988;2023-08-20T07:48:52;27.60;69.50
20349;DHT22;10332;50.208;18.988;2023-08-20T07:51:19;27.70;67.30
20349;DHT22;10332;50.208;18.988;2023-08-20T07:53:47;27.80;66.70
20349;DHT22;10332;50.208;18.988;2023-08-20T07:56:14;27.90;66.60
20349;DHT22;10332;50.208;18.988;2023-08-20T07:58:42;28.00;65.40
20349;DHT22;10332;50.208;18.988;2023-08-20T08:01:09;28.20;65.20
20349;DHT22;10332;50.208;18.988;2023-08-20T08:03:37;28.30;64.00
20349;DHT22;10332;50.208;18.988;2023-08-20T08:06:05;28.40;62.20
20349;DHT22;10332;50.208;18.988;2023-08-20T08:08:32;28.50;56.80
20349;DHT22;10332;50.208;18.988;2023-08-20T08:11:00;28.60;57.90
20349;DHT22;10332;50.208;18.988;2023-08-20T08:13:27;28.70;57.70
20349;DHT22;10332;50.208;18.988;2023-08-20T08:15:55;28.90;57.40
20349;DHT22;10332;50.208;18.988;2023-08-20T08:18:22;29.00;53.00
20349;DHT22;10332;50.208;18.988;2023-08-20T08:20:50;29.10;53.20
20349;DHT22;10332;50.208;18.988;2023-08-20T08:23:17;29.30;53.40
20349;DHT22;10332;50.208;18.988;2023-08-20T08:25:45;29.40;51.50
20349;DHT22;10332;50.208;18.988;2023-08-20T08:28:12;29.50;50.00
20349;DHT22;10332;50.208;18.988;2023-08-20T08:30:40;29.60;46.90
20349;DHT22;10332;50.208;18.988;2023-08-20T08:33:08;29.70;47.40
20349;DHT22;10332;50.208;18.988;2023-08-20T08:35:35;29.90;47.10
20349;DHT22;10332;50.208;18.988;2023-08-20T08:38:03;30.10;46.40
20349;DHT22;10332;50.208;18.988;2023-08-20T08:40:33;30.30;44.80
20349;DHT22;10332;50.208;18.988;2023-08-20T08:43:01;30.60;42.90
20349;DHT22;10332;50.208;18.988;2023-08-20T08:45:29;30.70;39.50
20349;DHT22;10332;50.208;18.988;2023-08-20T08:48:02;30.90;38.70
20349;DHT22;10332;50.208;18.988;2023-08-20T08:50:31;31.20;36.80
20349;DHT22;10332;50.208;18.988;2023-08-20T08:52:59;31.40;32.90
20349;DHT22;10332;50.208;18.988;2023-08-20T08:55:27;31.70;30.10
20349;DHT22;10332;50.208;18.988;2023-08-20T08:57:55;31.90;27.60
20349;DHT22;10332;50.208;18.988;2023-08-20T09:00:23;32.20;26.80
20349;DHT22;10332;50.208;18.988;2023-08-20T09:02:50;32.40;17.10
20349;DHT22;10332;50.208;18.988;2023-08-20T09:05:18;32.60;15.60
20349;DHT22;10332;50.208;18.988;2023-08-20T09:07:45;32.90;10.70
20349;DHT22;10332;50.208;18.988;2023-08-20T09:10:16;33.10;10.10
20349;DHT22;10332;50.208;18.988;2023-08-20T09:12:47;33.50;5.80
20349;DHT22;10332;50.208;18.988;2023-08-20T09:15:15;33.80;4.10
20349;DHT22;10332;50.208;18.988;2023-08-20T09:17:42;34.30;2.40
20349;DHT22;10332;50.208;18.988;2023-08-20T09:20:10;34.90;1.00
20349;DHT22;10332;50.208;18.988;2023-08-20T09:22:38;35.70;1.00
20349;DHT22;10332;50.208;18.988;2023-08-20T09:25:06;37.30;1.00
20349;DHT22;10332;50.208;18.988;2023-08-20T09:27:39;38.90;1.00
20349;DHT22;10332;50.208;18.988;2023-08-20T09:30:09;40.30;1.00
20349;DHT22;10332;50.208;18.988;2023-08-20T09:32:44;42.70;1.00
20349;DHT22;10332;50.208;18.988;2023-08-20T09:35:18;45.20;1.00
20349;DHT22;10332;50.208;18.988;2023-08-20T09:37:46;47.40;1.00
20349;DHT22;10332;50.208;18.988;2023-08-20T09:40:13;49.20;1.00
20349;DHT22;10332;50.208;18.988;2023-08-20T09:42:42;50.80;1.00
20349;DHT22;10332;50.208;18.988;2023-08-20T09:45:11;48.40;1.00
20349;DHT22;10332;50.208;18.988;2023-08-20T09:47:41;46.90;1.00
20349;DHT22;10332;50.208;18.988;2023-08-20T09:50:11;49.00;1.00
20349;DHT22;10332;50.208;18.988;2023-08-20T09:52:45;51.40;1.00
20349;DHT22;10332;50.208;18.988;2023-08-20T09:55:35;53.40;1.00
20349;DHT22;10332;50.208;18.988;2023-08-20T09:58:06;54.90;1.00
20349;DHT22;10332;50.208;18.988;2023-08-20T10:00:35;55.60;1.00
20349;DHT22;10332;50.208;18.988;2023-08-20T10:03:02;56.40;1.00
20349;DHT22;10332;50.208;18.988;2023-08-20T10:05:31;56.40;1.00
20349;DHT22;10332;50.208;18.988;2023-08-20T10:08:00;56.90;1.00
20349;DHT22;10332;50.208;18.988;2023-08-20T10:10:28;56.20;1.00
20349;DHT22;10332;50.208;18.988;2023-08-20T10:12:57;53.20;1.00
20349;DHT22;10332;50.208;18.988;2023-08-20T10:15:25;51.30;1.00
20349;DHT22;10332;50.208;18.988;2023-08-20T10:17:57;49.50;1.00
20349;DHT22;10332;50.208;18.988;2023-08-20T10:20:29;47.00;1.00
20349;DHT22;10332;50.208;18.988;2023-08-20T10:23:02;46.70;1.00
20349;DHT22;10332;50.208;18.988;2023-08-20T10:25:30;48.40;1.00
20349;DHT22;10332;50.208;18.988;2023-08-20T10:28:22;48.60;1.00
20349;DHT22;10332;50.208;18.988;2023-08-20T10:31:11;48.50;1.00
20349;DHT22;10332;50.208;18.988;2023-08-20T10:33:55;48.30;1.00
20349;DHT22;10332;50.208;18.988;2023-08-20T10:36:24;48.20;1.00
20349;DHT22;10332;50.208;18.988;2023-08-20T10:38:56;47.20;1.00
20349;DHT22;10332;50.208;18.988;2023-08-20T10:41:26;45.90;1.00
20349;DHT22;10332;50.208;18.988;2023-08-20T10:43:58;44.50;1.00
20349;DHT22;10332;50.208;18.988;2023-08-20T10:46:28;43.40;1.00
20349;DHT22;10332;50.208;18.988;2023-08-20T10:49:02;43.70;1.00
20349;DHT22;10332;50.208;18.988;2023-08-20T10:51:37;44.30;1.00
20349;DHT22;10332;50.208;18.988;2023-08-20T10:54:08;44.20;1.00
20349;DHT22;10332;50.208;18.988;2023-08-20T10:56:46;43.50;1.00
20349;DHT22;10332;50.208;18.988;2023-08-20T10:59:28;42.70;1.00
20349;DHT22;10332;50.208;18.988;2023-08-20T11:02:00;41.90;1.00
20349;DHT22;10332;50.208;18.988;2023-08-20T11:04:30;42.00;1.00
20349;DHT22;10332;50.208;18.988;2023-08-20T11:07:01;42.60;1.00
20349;DHT22;10332;50.208;18.988;2023-08-20T11:09:31;43.40;1.00
20349;DHT22;10332;50.208;18.988;2023-08-20T11:11:59;44.40;1.00
20349;DHT22;10332;50.208;18.988;2023-08-20T11:14:27;45.00;1.00
20349;DHT22;10332;50.208;18.988;2023-08-20T11:16:54;44.60;1.00
20349;DHT22;10332;50.208;18.988;2023-08-20T11:19:23;43.80;1.00
20349;DHT22;10332;50.208;18.988;2023-08-20T11:21:51;43.00;1.00
20349;DHT22;10332;50.208;18.988;2023-08-20T11:24:19;42.50;1.00
20349;DHT22;10332;50.208;18.988;2023-08-20T11:26:48;42.00;1.00
20349;DHT22;10332;50.208;18.988;2023-08-20T11:29:16;41.70;1.00
20349;DHT22;10332;50.208;18.988;2023-08-20T11:31:48;41.40;1.00
20349;DHT22;10332;50.208;18.988;2023-08-20T11:34:18;41.10;1.00
20349;DHT22;10332;50.208;18.988;2023-08-20T11:36:46;40.80;1.00
20349;DHT22;10332;50.208;18.988;2023-08-20T11:39:15;40.50;1.00
20349;DHT22;10332;50.208;18.988;2023-08-20T11:41:44;40.40;1.00
20349;DHT22;10332;50.208;18.988;2023-08-20T11:44:19;40.30;1.00
20349;DHT22;10332;50.208;18.988;2023-08-20T11:46:49;40.20;1.00
20349;DHT22;10332;50.208;18.988;2023-08-20T11:49:16;39.90;1.00
20349;DHT22;10332;50.208;18.988;2023-08-20T11:51:47;39.60;1.00
20349;DHT22;10332;50.208;18.988;2023-08-20T11:54:17;39.40;1.00
20349;DHT22;10332;50.208;18.988;2023-08-20T11:56:52;39.10;1.00
20349;DHT22;10332;50.208;18.988;2023-08-20T11:59:37;38.80;1.00
20349;DHT22;10332;50.208;18.988;2023-08-20T12:02:04;38.60;1.00
20349;DHT22;10332;50.208;18.988;2023-08-20T12:04:32;38.40;1.00
20349;DHT22;10332;50.208;18.988;2023-08-20T12:09:34;38.20;1.00
20349;DHT22;10332;50.208;18.988;2023-08-20T12:12:05;38.00;1.00
20349;DHT22;10332;50.208;18.988;2023-08-20T12:14:34;37.90;1.00
20349;DHT22;10332;50.208;18.988;2023-08-20T12:17:03;37.70;1.00
20349;DHT22;10332;50.208;18.988;2023-08-20T12:19:30;37.50;1.00
20349;DHT22;10332;50.208;18.988;2023-08-20T12:21:58;37.40;1.00
20349;DHT22;10332;50.208;18.988;2023-08-20T12:24:25;37.50;1.00
20349;DHT22;10332;50.208;18.988;2023-08-20T12:26:53;37.50;1.00
20349;DHT22;10332;50.208;18.988;2023-08-20T12:29:21;37.60;1.00
20349;DHT22;10332;50.208;18.988;2023-08-20T12:31:48;37.60;1.00
20349;DHT22;10332;50.208;18.988;2023-08-20T12:34:16;37.60;1.00
20349;DHT22;10332;50.208;18.988;2023-08-20T12:36:43;37.70;1.00
20349;DHT22;10332;50.208;18.988;2023-08-20T12:39:11;37.70;1.00
20349;DHT22;10332;50.208;18.988;2023-08-20T12:41:38;37.90;1.00
20349;DHT22;10332;50.208;18.988;2023-08-20T12:44:06;38.00;1.00
20349;DHT22;10332;50.208;18.988;2023-08-20T12:46:34;38.10;1.00
20349;DHT22;10332;50.208;18.988;2023-08-20T12:49:01;38.00;1.00
20349;DHT22;10332;50.208;18.988;2023-08-20T12:51:29;37.80;1.00
20349;DHT22;10332;50.208;18.988;2023-08-20T12:53:56;37.60;1.00
20349;DHT22;10332;50.208;18.988;2023-08-20T12:56:24;37.70;1.00
20349;DHT22;10332;50.208;18.988;2023-08-20T12:58:51;37.60;1.00
20349;DHT22;10332;50.208;18.988;2023-08-20T13:01:19;37.60;1.00
20349;DHT22;10332;50.208;18.988;2023-08-20T13:03:46;37.50;1.00
20349;DHT22;10332;50.208;18.988;2023-08-20T13:06:15;37.50;1.00
20349;DHT22;10332;50.208;18.988;2023-08-20T13:08:43;37.50;1.00
20349;DHT22;10332;50.208;18.988;2023-08-20T13:11:13;37.50;1.00
20349;DHT22;10332;50.208;18.988;2023-08-20T13:13:44;37.50;1.00
20349;DHT22;10332;50.208;18.988;2023-08-20T13:16:12;37.40;1.00
20349;DHT22;10332;50.208;18.988;2023-08-20T13:18:40;37.40;1.00
20349;DHT22;10332;50.208;18.988;2023-08-20T13:21:08;37.40;1.00
20349;DHT22;10332;50.208;18.988;2023-08-20T13:23:36;37.50;1.00
20349;DHT22;10332;50.208;18.988;2023-08-20T13:26:03;37.40;1.00
20349;DHT22;10332;50.208;18.988;2023-08-20T13:28:32;37.30;1.00
20349;DHT22;10332;50.208;18.988;2023-08-20T13:31:00;37.20;1.00
20349;DHT22;10332;50.208;18.988;2023-08-20T13:33:27;37.20;1.00
20349;DHT22;10332;50.208;18.988;2023-08-20T13:35:55;37.30;1.00
20349;DHT22;10332;50.208;18.988;2023-08-20T13:38:23;37.30;1.00
20349;DHT22;10332;50.208;18.988;2023-08-20T13:40:52;37.30;1.00
20349;DHT22;10332;50.208;18.988;2023-08-20T13:43:21;37.20;1.00
20349;DHT22;10332;50.208;18.988;2023-08-20T13:45:50;37.20;1.00
20349;DHT22;10332;50.208;18.988;2023-08-20T13:48:18;37.10;1.00
20349;DHT22;10332;50.208;18.988;2023-08-20T13:50:45;37.00;1.00
20349;DHT22;10332;50.208;18.988;2023-08-20T13:53:13;37.00;1.00
20349;DHT22;10332;50.208;18.988;2023-08-20T13:55:40;36.90;1.00
20349;DHT22;10332;50.208;18.988;2023-08-20T13:58:08;37.00;1.00
20349;DHT22;10332;50.208;18.988;2023-08-20T14:00:36;37.00;1.00
20349;DHT22;10332;50.208;18.988;2023-08-20T14:03:04;37.00;1.00
20349;DHT22;10332;50.208;18.988;2023-08-20T14:05:32;37.00;1.00
20349;DHT22;10332;50.208;18.988;2023-08-20T14:07:59;37.00;1.00
20349;DHT22;10332;50.208;18.988;2023-08-20T14:10:27;37.10;1.00
20349;DHT22;10332;50.208;18.988;2023-08-20T14:12:54;37.10;1.00
20349;DHT22;10332;50.208;18.988;2023-08-20T14:15:22;37.20;1.00
20349;DHT22;10332;50.208;18.988;2023-08-20T14:17:49;37.30;1.00
20349;DHT22;10332;50.208;18.988;2023-08-20T14:20:17;37.30;1.00
20349;DHT22;10332;50.208;18.988;2023-08-20T14:22:44;37.20;1.00
20349;DHT22;10332;50.208;18.988;2023-08-20T14:25:12;37.20;1.00
20349;DHT22;10332;50.208;18.988;2023-08-20T14:27:39;37.20;1.00
20349;DHT22;10332;50.208;18.988;2023-08-20T14:30:07;37.10;1.00
20349;DHT22;10332;50.208;18.988;2023-08-20T14:32:35;37.00;1.00
20349;DHT22;10332;50.208;18.988;2023-08-20T14:35:07;36.90;1.00
20349;DHT22;10332;50.208;18.988;2023-08-20T14:37:35;36.80;1.00
20349;DHT22;10332;50.208;18.988;2023-08-20T14:40:03;36.70;1.00
20349;DHT22;10332;50.208;18.988;2023-08-20T14:42:34;36.60;1.00
20349;DHT22;10332;50.208;18.988;2023-08-20T14:45:02;36.40;1.00
20349;DHT22;10332;50.208;18.988;2023-08-20T14:47:31;36.20;1.00
20349;DHT22;10332;50.208;18.988;2023-08-20T14:49:59;36.10;1.00
20349;DHT22;10332;50.208;18.988;2023-08-20T14:52:26;36.00;1.00
20349;DHT22;10332;50.208;18.988;2023-08-20T14:54:54;35.90;1.00
20349;DHT22;10332;50.208;18.988;2023-08-20T14:57:21;35.80;1.00
20349;DHT22;10332;50.208;18.988;2023-08-20T14:59:48;35.80;1.00
20349;DHT22;10332;50.208;18.988;2023-08-20T15:02:17;35.80;1.00
20349;DHT22;10332;50.208;18.988;2023-08-20T15:04:46;35.70;1.00
20349;DHT22;10332;50.208;18.988;2023-08-20T15:07:13;35.70;1.00
20349;DHT22;10332;50.208;18.988;2023-08-20T15:09:41;35.60;1.00
20349;DHT22;10332;50.208;18.988;2023-08-20T15:12:08;35.50;1.00
20349;DHT22;10332;50.208;18.988;2023-08-20T15:14:36;35.40;1.00
20349;DHT22;10332;50.208;18.988;2023-08-20T15:17:03;35.40;1.00
20349;DHT22;10332;50.208;18.988;2023-08-20T15:19:31;35.30;1.00
20349;DHT22;10332;50.208;18.988;2023-08-20T15:21:58;35.30;1.00
20349;DHT22;10332;50.208;18.988;2023-08-20T15:24:26;35.30;1.00
20349;DHT22;10332;50.208;18.988;2023-08-20T15:26:53;35.30;1.00
20349;DHT22;10332;50.208;18.988;2023-08-20T15:29:21;35.20;1.00
20349;DHT22;10332;50.208;18.988;2023-08-20T15:31:48;35.20;1.00
20349;DHT22;10332;50.208;18.988;2023-08-20T15:34:18;35.20;1.00
20349;DHT22;10332;50.208;18.988;2023-08-20T15:36:46;35.10;1.00
20349;DHT22;10332;50.208;18.988;2023-08-20T15:39:13;35.10;1.00